sensor_id;sensor_type;location;lat;lon;timestamp;P1;durP1;ratioP1;P2;durP2;ratioP2
8665;SDS011;4370;48.916;8.380;2022-09-09T00:01:37;1.97;;;1.43;;
8665;SDS011;4370;48.916;8.380;2022-09-09T00:04:18;2.00;;;1.33;;
8665;SDS011;4370;48.916;8.380;2022-09-09T00:09:31;2.17;;;1.40;;
8665;SDS011;4370;48.916;8.380;2022-09-09T00:12:18;1.67;;;1.10;;
8665;SDS011;4370;48.916;8.380;2022-09-09T00:14:56;1.87;;;1.47;;
8665;SDS011;4370;48.916;8.380;2022-09-09T00:20:16;3.00;;;1.20;;
8665;SDS011;4370;48.916;8.380;2022-09-09T00:23:04;2.67;;;1.40;;
8665;SDS011;4370;48.916;8.380;2022-09-09T00:25:40;2.73;;;1.47;;
8665;SDS011;4370;48.916;8.380;2022-09-09T00:28:18;2.63;;;1.50;;
8665;SDS011;4370;48.916;8.380;2022-09-09T00:30:47;3.00;;;1.40;;
8665;SDS011;4370;48.916;8.380;2022-09-09T00:33:13;2.37;;;1.50;;
8665;SDS011;4370;48.916;8.380;2022-09-09T00:35:58;1.77;;;1.30;;
8665;SDS011;4370;48.916;8.380;2022-09-09T00:38:32;1.83;;;1.40;;
8665;SDS011;4370;48.916;8.380;2022-09-09T00:44:02;3.30;;;1.40;;
8665;SDS011;4370;48.916;8.380;2022-09-09T00:46:54;3.17;;;1.43;;
8665;SDS011;4370;48.916;8.380;2022-09-09T00:52:30;1.50;;;1.40;;
8665;SDS011;4370;48.916;8.380;2022-09-09T00:58:12;1.90;;;1.50;;
8665;SDS011;4370;48.916;8.380;2022-09-09T01:00:43;2.40;;;1.50;;
8665;SDS011;4370;48.916;8.380;2022-09-09T01:05:44;1.93;;;1.50;;
8665;SDS011;4370;48.916;8.380;2022-09-09T01:08:38;1.53;;;1.33;;
8665;SDS011;4370;48.916;8.380;2022-09-09T01:11:26;1.73;;;1.30;;
8665;SDS011;4370;48.916;8.380;2022-09-09T01:14:05;2.57;;;1.53;;
8665;SDS011;4370;48.916;8.380;2022-09-09T01:20:15;2.60;;;1.43;;
8665;SDS011;4370;48.916;8.380;2022-09-09T01:23:04;4.60;;;1.70;;
8665;SDS011;4370;48.916;8.380;2022-09-09T01:26:55;2.43;;;1.20;;
8665;SDS011;4370;48.916;8.380;2022-09-09T01:28:50;5.17;;;1.57;;
8665;SDS011;4370;48.916;8.380;2022-09-09T01:31:21;2.33;;;1.30;;
8665;SDS011;4370;48.916;8.380;2022-09-09T01:33:52;4.73;;;1.70;;
8665;SDS011;4370;48.916;8.380;2022-09-09T01:36:27;3.23;;;1.40;;
8665;SDS011;4370;48.916;8.380;2022-09-09T01:39:00;3.50;;;1.40;;
8665;SDS011;4370;48.916;8.380;2022-09-09T01:41:26;3.07;;;1.30;;
8665;SDS011;4370;48.916;8.380;2022-09-09T01:43:53;5.97;;;1.67;;
8665;SDS011;4370;48.916;8.380;2022-09-09T01:46:21;3.47;;;1.37;;
8665;SDS011;4370;48.916;8.380;2022-09-09T01:48:47;2.10;;;1.33;;
8665;SDS011;4370;48.916;8.380;2022-09-09T01:51:17;2.43;;;1.10;;
8665;SDS011;4370;48.916;8.380;2022-09-09T01:53:43;9.57;;;1.63;;
8665;SDS011;4370;48.916;8.380;2022-09-09T02:06:42;1.47;;;1.00;;
8665;SDS011;4370;48.916;8.380;2022-09-09T02:09:10;2.00;;;0.97;;
8665;SDS011;4370;48.916;8.380;2022-09-09T02:11:37;1.00;;;0.80;;
8665;SDS011;4370;48.916;8.380;2022-09-09T02:14:08;0.77;;;0.63;;
8665;SDS011;4370;48.916;8.380;2022-09-09T02:16:40;0.87;;;0.70;;
8665;SDS011;4370;48.916;8.380;2022-09-09T02:21:51;3.20;;;1.00;;
8665;SDS011;4370;48.916;8.380;2022-09-09T02:24:19;0.83;;;0.80;;
8665;SDS011;4370;48.916;8.380;2022-09-09T02:26:45;2.13;;;0.80;;
8665;SDS011;4370;48.916;8.380;2022-09-09T02:29:15;0.83;;;0.70;;
8665;SDS011;4370;48.916;8.380;2022-09-09T02:31:47;1.10;;;0.90;;
8665;SDS011;4370;48.916;8.380;2022-09-09T02:34:14;1.37;;;0.60;;
8665;SDS011;4370;48.916;8.380;2022-09-09T02:36:45;1.20;;;0.80;;
8665;SDS011;4370;48.916;8.380;2022-09-09T02:39:11;1.00;;;0.90;;
8665;SDS011;4370;48.916;8.380;2022-09-09T02:41:39;2.40;;;0.73;;
8665;SDS011;4370;48.916;8.380;2022-09-09T02:44:12;0.70;;;0.70;;
8665;SDS011;4370;48.916;8.380;2022-09-09T02:49:17;1.23;;;0.87;;
8665;SDS011;4370;48.916;8.380;2022-09-09T02:52:04;1.17;;;0.90;;
8665;SDS011;4370;48.916;8.380;2022-09-09T02:54:33;1.13;;;0.73;;
8665;SDS011;4370;48.916;8.380;2022-09-09T02:57:06;2.10;;;0.87;;
8665;SDS011;4370;48.916;8.380;2022-09-09T02:59:44;0.90;;;0.90;;
8665;SDS011;4370;48.916;8.380;2022-09-09T03:02:12;0.60;;;0.60;;
8665;SDS011;4370;48.916;8.380;2022-09-09T03:04:39;1.00;;;0.83;;
8665;SDS011;4370;48.916;8.380;2022-09-09T03:07:09;1.03;;;0.80;;
8665;SDS011;4370;48.916;8.380;2022-09-09T03:09:35;1.60;;;0.70;;
8665;SDS011;4370;48.916;8.380;2022-09-09T03:12:01;0.90;;;0.90;;
8665;SDS011;4370;48.916;8.380;2022-09-09T03:14:29;1.10;;;1.00;;
8665;SDS011;4370;48.916;8.380;2022-09-09T03:16:55;3.00;;;1.00;;
8665;SDS011;4370;48.916;8.380;2022-09-09T03:19:22;0.97;;;0.90;;
8665;SDS011;4370;48.916;8.380;2022-09-09T03:21:49;3.77;;;1.00;;
8665;SDS011;4370;48.916;8.380;2022-09-09T03:24:15;1.50;;;0.90;;
8665;SDS011;4370;48.916;8.380;2022-09-09T03:26:42;0.83;;;0.83;;
8665;SDS011;4370;48.916;8.380;2022-09-09T03:29:12;2.23;;;1.00;;
8665;SDS011;4370;48.916;8.380;2022-09-09T03:31:38;1.13;;;1.00;;
8665;SDS011;4370;48.916;8.380;2022-09-09T03:34:04;1.53;;;1.00;;
8665;SDS011;4370;48.916;8.380;2022-09-09T03:36:32;1.23;;;1.00;;
8665;SDS011;4370;48.916;8.380;2022-09-09T03:38:58;0.90;;;0.90;;
8665;SDS011;4370;48.916;8.380;2022-09-09T03:41:25;1.63;;;0.87;;
8665;SDS011;4370;48.916;8.380;2022-09-09T03:43:51;4.07;;;1.20;;
8665;SDS011;4370;48.916;8.380;2022-09-09T03:46:17;2.60;;;0.90;;
8665;SDS011;4370;48.916;8.380;2022-09-09T03:48:44;1.93;;;1.00;;
8665;SDS011;4370;48.916;8.380;2022-09-09T03:51:10;2.30;;;0.90;;
8665;SDS011;4370;48.916;8.380;2022-09-09T03:53:36;1.70;;;1.00;;
8665;SDS011;4370;48.916;8.380;2022-09-09T03:56:02;1.33;;;0.90;;
8665;SDS011;4370;48.916;8.380;2022-09-09T03:58:31;1.70;;;1.23;;
8665;SDS011;4370;48.916;8.380;2022-09-09T04:00:59;1.80;;;0.93;;
8665;SDS011;4370;48.916;8.380;2022-09-09T04:03:26;1.43;;;1.10;;
8665;SDS011;4370;48.916;8.380;2022-09-09T04:05:52;3.83;;;1.30;;
8665;SDS011;4370;48.916;8.380;2022-09-09T04:08:19;1.63;;;1.00;;
8665;SDS011;4370;48.916;8.380;2022-09-09T04:10:48;1.87;;;1.00;;
8665;SDS011;4370;48.916;8.380;2022-09-09T04:13:15;2.33;;;0.90;;
8665;SDS011;4370;48.916;8.380;2022-09-09T04:15:44;2.87;;;1.30;;
8665;SDS011;4370;48.916;8.380;2022-09-09T04:18:19;1.67;;;1.00;;
8665;SDS011;4370;48.916;8.380;2022-09-09T04:20:48;1.70;;;1.00;;
8665;SDS011;4370;48.916;8.380;2022-09-09T04:23:15;1.97;;;1.10;;
8665;SDS011;4370;48.916;8.380;2022-09-09T04:25:44;2.60;;;1.00;;
8665;SDS011;4370;48.916;8.380;2022-09-09T04:28:11;2.77;;;1.00;;
8665;SDS011;4370;48.916;8.380;2022-09-09T04:30:38;3.10;;;0.90;;
8665;SDS011;4370;48.916;8.380;2022-09-09T04:33:05;2.37;;;0.93;;
8665;SDS011;4370;48.916;8.380;2022-09-09T04:35:31;1.37;;;0.90;;
8665;SDS011;4370;48.916;8.380;2022-09-09T04:37:57;1.53;;;0.90;;
8665;SDS011;4370;48.916;8.380;2022-09-09T04:40:23;2.10;;;0.80;;
8665;SDS011;4370;48.916;8.380;2022-09-09T04:42:50;2.40;;;1.00;;
8665;SDS011;4370;48.916;8.380;2022-09-09T04:45:17;3.40;;;0.90;;
8665;SDS011;4370;48.916;8.380;2022-09-09T04:47:43;0.70;;;0.70;;
8665;SDS011;4370;48.916;8.380;2022-09-09T04:50:10;1.60;;;0.90;;
8665;SDS011;4370;48.916;8.380;2022-09-09T04:52:37;1.43;;;0.90;;
8665;SDS011;4370;48.916;8.380;2022-09-09T04:55:03;1.47;;;0.93;;
8665;SDS011;4370;48.916;8.380;2022-09-09T04:57:30;2.17;;;1.10;;
8665;SDS011;4370;48.916;8.380;2022-09-09T04:59:58;2.50;;;1.10;;
8665;SDS011;4370;48.916;8.380;2022-09-09T05:02:24;0.70;;;0.70;;
8665;SDS011;4370;48.916;8.380;2022-09-09T05:04:50;2.40;;;1.10;;
8665;SDS011;4370;48.916;8.380;2022-09-09T05:07:17;0.93;;;0.83;;
8665;SDS011;4370;48.916;8.380;2022-09-09T05:09:44;0.80;;;0.80;;
8665;SDS011;4370;48.916;8.380;2022-09-09T05:12:10;0.80;;;0.80;;
8665;SDS011;4370;48.916;8.380;2022-09-09T05:14:36;1.10;;;1.00;;
8665;SDS011;4370;48.916;8.380;2022-09-09T05:17:02;0.70;;;0.70;;
8665;SDS011;4370;48.916;8.380;2022-09-09T05:19:28;1.20;;;0.90;;
8665;SDS011;4370;48.916;8.380;2022-09-09T05:21:56;0.83;;;0.83;;
8665;SDS011;4370;48.916;8.380;2022-09-09T05:24:21;0.97;;;0.80;;
8665;SDS011;4370;48.916;8.380;2022-09-09T05:26:48;0.90;;;0.80;;
8665;SDS011;4370;48.916;8.380;2022-09-09T05:29:14;0.70;;;0.70;;
8665;SDS011;4370;48.916;8.380;2022-09-09T05:31:39;0.70;;;0.70;;
8665;SDS011;4370;48.916;8.380;2022-09-09T05:34:06;0.70;;;0.70;;
8665;SDS011;4370;48.916;8.380;2022-09-09T05:36:32;0.80;;;0.80;;
8665;SDS011;4370;48.916;8.380;2022-09-09T05:38:57;1.23;;;0.87;;
8665;SDS011;4370;48.916;8.380;2022-09-09T05:41:23;1.23;;;0.80;;
8665;SDS011;4370;48.916;8.380;2022-09-09T05:43:49;1.13;;;0.90;;
8665;SDS011;4370;48.916;8.380;2022-09-09T05:46:24;1.87;;;0.93;;
8665;SDS011;4370;48.916;8.380;2022-09-09T05:48:50;1.23;;;0.80;;
8665;SDS011;4370;48.916;8.380;2022-09-09T05:51:23;2.00;;;1.00;;
8665;SDS011;4370;48.916;8.380;2022-09-09T05:53:50;1.37;;;1.10;;
8665;SDS011;4370;48.916;8.380;2022-09-09T05:58:45;2.10;;;1.03;;
8665;SDS011;4370;48.916;8.380;2022-09-09T06:01:18;3.03;;;1.27;;
8665;SDS011;4370;48.916;8.380;2022-09-09T06:03:48;1.93;;;1.00;;
8665;SDS011;4370;48.916;8.380;2022-09-09T06:06:25;2.63;;;1.13;;
8665;SDS011;4370;48.916;8.380;2022-09-09T06:08:56;2.73;;;0.93;;
8665;SDS011;4370;48.916;8.380;2022-09-09T06:11:25;3.27;;;1.10;;
8665;SDS011;4370;48.916;8.380;2022-09-09T06:13:58;1.90;;;1.10;;
8665;SDS011;4370;48.916;8.380;2022-09-09T06:16:25;1.93;;;1.10;;
8665;SDS011;4370;48.916;8.380;2022-09-09T06:18:52;2.00;;;1.00;;
8665;SDS011;4370;48.916;8.380;2022-09-09T06:21:23;2.03;;;1.10;;
8665;SDS011;4370;48.916;8.380;2022-09-09T06:23:55;4.07;;;1.10;;
8665;SDS011;4370;48.916;8.380;2022-09-09T06:26:21;2.63;;;1.13;;
8665;SDS011;4370;48.916;8.380;2022-09-09T06:28:50;2.53;;;1.10;;
8665;SDS011;4370;48.916;8.380;2022-09-09T06:31:18;3.10;;;1.13;;
8665;SDS011;4370;48.916;8.380;2022-09-09T06:33:49;2.50;;;1.13;;
8665;SDS011;4370;48.916;8.380;2022-09-09T06:36:17;3.20;;;1.20;;
8665;SDS011;4370;48.916;8.380;2022-09-09T06:38:44;2.70;;;1.13;;
8665;SDS011;4370;48.916;8.380;2022-09-09T06:41:11;2.40;;;1.20;;
8665;SDS011;4370;48.916;8.380;2022-09-09T06:43:38;4.53;;;1.30;;
8665;SDS011;4370;48.916;8.380;2022-09-09T06:46:06;2.13;;;1.20;;
8665;SDS011;4370;48.916;8.380;2022-09-09T06:48:36;3.53;;;1.00;;
8665;SDS011;4370;48.916;8.380;2022-09-09T06:51:05;3.53;;;1.50;;
8665;SDS011;4370;48.916;8.380;2022-09-09T06:53:34;2.30;;;1.13;;
8665;SDS011;4370;48.916;8.380;2022-09-09T06:56:01;4.30;;;1.30;;
8665;SDS011;4370;48.916;8.380;2022-09-09T06:58:42;4.53;;;1.30;;
8665;SDS011;4370;48.916;8.380;2022-09-09T07:01:09;2.80;;;1.00;;
8665;SDS011;4370;48.916;8.380;2022-09-09T07:03:37;3.03;;;1.40;;
8665;SDS011;4370;48.916;8.380;2022-09-09T07:06:03;4.43;;;1.40;;
8665;SDS011;4370;48.916;8.380;2022-09-09T07:08:30;3.80;;;1.50;;
8665;SDS011;4370;48.916;8.380;2022-09-09T07:11:01;4.40;;;1.27;;
8665;SDS011;4370;48.916;8.380;2022-09-09T07:13:32;4.13;;;1.30;;
8665;SDS011;4370;48.916;8.380;2022-09-09T07:16:04;3.50;;;1.13;;
8665;SDS011;4370;48.916;8.380;2022-09-09T07:18:35;3.03;;;1.20;;
8665;SDS011;4370;48.916;8.380;2022-09-09T07:21:01;1.50;;;1.00;;
8665;SDS011;4370;48.916;8.380;2022-09-09T07:23:28;2.90;;;1.30;;
8665;SDS011;4370;48.916;8.380;2022-09-09T07:25:54;2.03;;;1.00;;
8665;SDS011;4370;48.916;8.380;2022-09-09T07:28:21;3.10;;;1.23;;
8665;SDS011;4370;48.916;8.380;2022-09-09T07:30:57;2.50;;;1.00;;
8665;SDS011;4370;48.916;8.380;2022-09-09T07:33:27;3.80;;;1.33;;
8665;SDS011;4370;48.916;8.380;2022-09-09T07:36:01;2.37;;;1.03;;
8665;SDS011;4370;48.916;8.380;2022-09-09T07:38:39;3.97;;;1.30;;
8665;SDS011;4370;48.916;8.380;2022-09-09T07:41:08;5.33;;;1.73;;
8665;SDS011;4370;48.916;8.380;2022-09-09T07:43:41;3.03;;;1.40;;
8665;SDS011;4370;48.916;8.380;2022-09-09T07:46:08;3.42;;;1.23;;
8665;SDS011;4370;48.916;8.380;2022-09-09T07:48:35;3.55;;;1.30;;
8665;SDS011;4370;48.916;8.380;2022-09-09T07:51:05;3.92;;;1.60;;
8665;SDS011;4370;48.916;8.380;2022-09-09T07:53:33;3.42;;;1.23;;
8665;SDS011;4370;48.916;8.380;2022-09-09T07:56:03;2.92;;;1.33;;
8665;SDS011;4370;48.916;8.380;2022-09-09T07:58:34;2.95;;;1.40;;
8665;SDS011;4370;48.916;8.380;2022-09-09T08:01:00;4.03;;;1.30;;
8665;SDS011;4370;48.916;8.380;2022-09-09T08:03:26;3.45;;;1.08;;
8665;SDS011;4370;48.916;8.380;2022-09-09T08:05:52;4.82;;;1.30;;
8665;SDS011;4370;48.916;8.380;2022-09-09T08:08:18;1.77;;;0.98;;
8665;SDS011;4370;48.916;8.380;2022-09-09T08:10:44;2.85;;;1.20;;
8665;SDS011;4370;48.916;8.380;2022-09-09T08:13:10;4.72;;;1.50;;
8665;SDS011;4370;48.916;8.380;2022-09-09T08:15:38;3.15;;;1.38;;
8665;SDS011;4370;48.916;8.380;2022-09-09T08:18:04;3.17;;;1.15;;
8665;SDS011;4370;48.916;8.380;2022-09-09T08:20:30;1.97;;;1.23;;
8665;SDS011;4370;48.916;8.380;2022-09-09T08:22:56;6.47;;;1.70;;
8665;SDS011;4370;48.916;8.380;2022-09-09T08:25:23;4.10;;;1.60;;
8665;SDS011;4370;48.916;8.380;2022-09-09T08:27:49;5.37;;;1.47;;
8665;SDS011;4370;48.916;8.380;2022-09-09T08:30:15;3.90;;;1.23;;
8665;SDS011;4370;48.916;8.380;2022-09-09T08:32:41;5.17;;;1.77;;
8665;SDS011;4370;48.916;8.380;2022-09-09T08:35:08;4.63;;;1.53;;
8665;SDS011;4370;48.916;8.380;2022-09-09T08:37:33;4.80;;;1.40;;
8665;SDS011;4370;48.916;8.380;2022-09-09T08:39:59;5.53;;;1.57;;
8665;SDS011;4370;48.916;8.380;2022-09-09T08:42:41;4.83;;;1.50;;
8665;SDS011;4370;48.916;8.380;2022-09-09T08:45:24;4.83;;;1.50;;
8665;SDS011;4370;48.916;8.380;2022-09-09T08:47:59;3.67;;;1.60;;
8665;SDS011;4370;48.916;8.380;2022-09-09T08:50:42;6.53;;;1.70;;
8665;SDS011;4370;48.916;8.380;2022-09-09T08:55:44;2.50;;;1.40;;
8665;SDS011;4370;48.916;8.380;2022-09-09T09:00:44;6.73;;;1.77;;
8665;SDS011;4370;48.916;8.380;2022-09-09T09:11:45;4.67;;;1.40;;
8665;SDS011;4370;48.916;8.380;2022-09-09T09:14:20;3.90;;;1.40;;
8665;SDS011;4370;48.916;8.380;2022-09-09T09:16:52;4.27;;;1.60;;
8665;SDS011;4370;48.916;8.380;2022-09-09T09:19:22;4.10;;;1.40;;
8665;SDS011;4370;48.916;8.380;2022-09-09T09:21:52;4.90;;;1.60;;
8665;SDS011;4370;48.916;8.380;2022-09-09T09:27:12;6.00;;;1.40;;
8665;SDS011;4370;48.916;8.380;2022-09-09T09:29:40;3.70;;;1.20;;
8665;SDS011;4370;48.916;8.380;2022-09-09T09:32:08;4.80;;;1.30;;
8665;SDS011;4370;48.916;8.380;2022-09-09T09:34:39;3.63;;;1.50;;
8665;SDS011;4370;48.916;8.380;2022-09-09T09:37:28;3.23;;;1.20;;
8665;SDS011;4370;48.916;8.380;2022-09-09T09:39:53;3.13;;;1.37;;
8665;SDS011;4370;48.916;8.380;2022-09-09T09:42:19;3.10;;;1.30;;
8665;SDS011;4370;48.916;8.380;2022-09-09T09:44:45;5.90;;;1.70;;
8665;SDS011;4370;48.916;8.380;2022-09-09T09:47:12;3.67;;;1.37;;
8665;SDS011;4370;48.916;8.380;2022-09-09T09:49:50;5.30;;;1.57;;
8665;SDS011;4370;48.916;8.380;2022-09-09T09:52:22;5.27;;;1.57;;
8665;SDS011;4370;48.916;8.380;2022-09-09T09:54:53;6.17;;;1.57;;
8665;SDS011;4370;48.916;8.380;2022-09-09T09:57:25;6.80;;;1.60;;
8665;SDS011;4370;48.916;8.380;2022-09-09T10:00:27;5.67;;;1.43;;
8665;SDS011;4370;48.916;8.380;2022-09-09T10:02:47;4.33;;;1.30;;
8665;SDS011;4370;48.916;8.380;2022-09-09T10:07:43;4.67;;;1.67;;
8665;SDS011;4370;48.916;8.380;2022-09-09T10:10:12;6.47;;;1.77;;
8665;SDS011;4370;48.916;8.380;2022-09-09T10:15:46;3.97;;;1.47;;
8665;SDS011;4370;48.916;8.380;2022-09-09T10:21:20;4.50;;;1.70;;
8665;SDS011;4370;48.916;8.380;2022-09-09T10:29:13;5.40;;;1.47;;
8665;SDS011;4370;48.916;8.380;2022-09-09T10:40:33;2.30;;;1.27;;
8665;SDS011;4370;48.916;8.380;2022-09-09T10:43:07;3.57;;;1.50;;
8665;SDS011;4370;48.916;8.380;2022-09-09T11:00:05;6.13;;;1.43;;
8665;SDS011;4370;48.916;8.380;2022-09-09T11:02:38;2.13;;;1.07;;
8665;SDS011;4370;48.916;8.380;2022-09-09T11:05:09;2.37;;;1.30;;
8665;SDS011;4370;48.916;8.380;2022-09-09T11:07:42;8.23;;;1.40;;
8665;SDS011;4370;48.916;8.380;2022-09-09T11:15:52;4.43;;;1.60;;
8665;SDS011;4370;48.916;8.380;2022-09-09T11:18:25;6.03;;;1.57;;
8665;SDS011;4370;48.916;8.380;2022-09-09T11:20:55;3.30;;;1.27;;
8665;SDS011;4370;48.916;8.380;2022-09-09T11:23:32;3.37;;;1.40;;
8665;SDS011;4370;48.916;8.380;2022-09-09T11:26:07;4.20;;;1.20;;
8665;SDS011;4370;48.916;8.380;2022-09-09T11:36:56;7.80;;;1.90;;
8665;SDS011;4370;48.916;8.380;2022-09-09T11:42:21;6.87;;;1.63;;
8665;SDS011;4370;48.916;8.380;2022-09-09T11:44:49;6.30;;;1.33;;
8665;SDS011;4370;48.916;8.380;2022-09-09T11:47:25;4.43;;;1.50;;
8665;SDS011;4370;48.916;8.380;2022-09-09T11:52:37;4.77;;;1.20;;
8665;SDS011;4370;48.916;8.380;2022-09-09T11:55:10;2.83;;;1.23;;
8665;SDS011;4370;48.916;8.380;2022-09-09T11:57:58;3.03;;;1.13;;
8665;SDS011;4370;48.916;8.380;2022-09-09T12:00:35;3.23;;;1.23;;
8665;SDS011;4370;48.916;8.380;2022-09-09T12:03:03;2.93;;;1.30;;
8665;SDS011;4370;48.916;8.380;2022-09-09T12:05:37;3.60;;;1.33;;
8665;SDS011;4370;48.916;8.380;2022-09-09T12:08:09;3.83;;;1.20;;
8665;SDS011;4370;48.916;8.380;2022-09-09T12:10:40;3.23;;;1.10;;
8665;SDS011;4370;48.916;8.380;2022-09-09T12:15:46;2.87;;;1.20;;
8665;SDS011;4370;48.916;8.380;2022-09-09T12:18:14;2.80;;;1.30;;
8665;SDS011;4370;48.916;8.380;2022-09-09T12:23:52;1.93;;;1.13;;
8665;SDS011;4370;48.916;8.380;2022-09-09T12:26:41;1.97;;;0.97;;
8665;SDS011;4370;48.916;8.380;2022-09-09T12:36:55;3.83;;;1.10;;
8665;SDS011;4370;48.916;8.380;2022-09-09T12:41:53;2.30;;;1.10;;
8665;SDS011;4370;48.916;8.380;2022-09-09T12:44:21;1.80;;;1.17;;
8665;SDS011;4370;48.916;8.380;2022-09-09T12:46:47;4.60;;;1.07;;
8665;SDS011;4370;48.916;8.380;2022-09-09T12:51:58;5.20;;;1.27;;
8665;SDS011;4370;48.916;8.380;2022-09-09T12:54:30;3.50;;;1.37;;
8665;SDS011;4370;48.916;8.380;2022-09-09T12:56:56;2.80;;;1.27;;
8665;SDS011;4370;48.916;8.380;2022-09-09T12:59:23;3.20;;;1.10;;
8665;SDS011;4370;48.916;8.380;2022-09-09T13:01:57;3.73;;;1.23;;
8665;SDS011;4370;48.916;8.380;2022-09-09T13:04:23;2.20;;;1.00;;
8665;SDS011;4370;48.916;8.380;2022-09-09T13:06:49;1.77;;;1.00;;
8665;SDS011;4370;48.916;8.380;2022-09-09T13:09:17;2.10;;;1.10;;
8665;SDS011;4370;48.916;8.380;2022-09-09T13:11:44;3.47;;;1.27;;
8665;SDS011;4370;48.916;8.380;2022-09-09T13:14:16;3.30;;;1.00;;
8665;SDS011;4370;48.916;8.380;2022-09-09T13:16:53;3.47;;;1.30;;
8665;SDS011;4370;48.916;8.380;2022-09-09T13:19:24;2.67;;;1.00;;
8665;SDS011;4370;48.916;8.380;2022-09-09T13:21:53;4.87;;;1.20;;
8665;SDS011;4370;48.916;8.380;2022-09-09T13:24:27;3.20;;;1.27;;
8665;SDS011;4370;48.916;8.380;2022-09-09T13:27:05;3.00;;;1.43;;
8665;SDS011;4370;48.916;8.380;2022-09-09T13:29:59;2.87;;;1.20;;
8665;SDS011;4370;48.916;8.380;2022-09-09T13:32:25;4.77;;;1.30;;
8665;SDS011;4370;48.916;8.380;2022-09-09T13:37:24;7.73;;;1.27;;
8665;SDS011;4370;48.916;8.380;2022-09-09T13:39:59;4.90;;;1.50;;
8665;SDS011;4370;48.916;8.380;2022-09-09T13:42:28;2.80;;;1.20;;
8665;SDS011;4370;48.916;8.380;2022-09-09T13:44:56;2.33;;;1.10;;
8665;SDS011;4370;48.916;8.380;2022-09-09T13:47:27;1.80;;;1.13;;
8665;SDS011;4370;48.916;8.380;2022-09-09T13:49:58;3.87;;;1.33;;
8665;SDS011;4370;48.916;8.380;2022-09-09T13:52:25;3.63;;;1.20;;
8665;SDS011;4370;48.916;8.380;2022-09-09T13:54:55;4.70;;;1.43;;
8665;SDS011;4370;48.916;8.380;2022-09-09T13:57:24;3.17;;;1.20;;
8665;SDS011;4370;48.916;8.380;2022-09-09T13:59:51;2.77;;;1.20;;
8665;SDS011;4370;48.916;8.380;2022-09-09T14:02:19;3.83;;;1.20;;
8665;SDS011;4370;48.916;8.380;2022-09-09T14:04:47;1.87;;;1.07;;
8665;SDS011;4370;48.916;8.380;2022-09-09T14:07:15;2.87;;;1.33;;
8665;SDS011;4370;48.916;8.380;2022-09-09T14:09:42;1.70;;;0.90;;
8665;SDS011;4370;48.916;8.380;2022-09-09T14:12:10;2.73;;;1.10;;
8665;SDS011;4370;48.916;8.380;2022-09-09T14:14:37;3.97;;;1.47;;
8665;SDS011;4370;48.916;8.380;2022-09-09T14:17:02;2.27;;;1.07;;
8665;SDS011;4370;48.916;8.380;2022-09-09T14:19:29;4.00;;;1.10;;
8665;SDS011;4370;48.916;8.380;2022-09-09T14:21:56;2.07;;;0.87;;
8665;SDS011;4370;48.916;8.380;2022-09-09T14:24:22;3.57;;;0.90;;
8665;SDS011;4370;48.916;8.380;2022-09-09T14:26:48;3.00;;;1.10;;
8665;SDS011;4370;48.916;8.380;2022-09-09T14:29:14;2.73;;;1.07;;
8665;SDS011;4370;48.916;8.380;2022-09-09T14:31:40;4.80;;;1.17;;
8665;SDS011;4370;48.916;8.380;2022-09-09T14:34:06;1.10;;;0.93;;
8665;SDS011;4370;48.916;8.380;2022-09-09T14:36:32;2.97;;;1.20;;
8665;SDS011;4370;48.916;8.380;2022-09-09T14:38:58;3.47;;;1.00;;
8665;SDS011;4370;48.916;8.380;2022-09-09T14:41:23;3.93;;;1.10;;
8665;SDS011;4370;48.916;8.380;2022-09-09T14:43:50;2.10;;;0.80;;
8665;SDS011;4370;48.916;8.380;2022-09-09T14:46:17;1.97;;;0.90;;
8665;SDS011;4370;48.916;8.380;2022-09-09T14:48:43;1.97;;;1.07;;
8665;SDS011;4370;48.916;8.380;2022-09-09T14:53:47;1.37;;;0.80;;
8665;SDS011;4370;48.916;8.380;2022-09-09T14:56:16;2.83;;;1.00;;
8665;SDS011;4370;48.916;8.380;2022-09-09T14:58:43;2.80;;;1.10;;
8665;SDS011;4370;48.916;8.380;2022-09-09T15:01:15;3.33;;;0.97;;
8665;SDS011;4370;48.916;8.380;2022-09-09T15:03:43;4.77;;;1.20;;
8665;SDS011;4370;48.916;8.380;2022-09-09T15:06:13;2.30;;;1.13;;
8665;SDS011;4370;48.916;8.380;2022-09-09T15:08:40;3.93;;;1.20;;
8665;SDS011;4370;48.916;8.380;2022-09-09T15:11:09;2.23;;;1.20;;
8665;SDS011;4370;48.916;8.380;2022-09-09T15:13:36;2.63;;;0.90;;
8665;SDS011;4370;48.916;8.380;2022-09-09T15:16:03;5.07;;;1.23;;
8665;SDS011;4370;48.916;8.380;2022-09-09T15:18:30;4.17;;;1.00;;
8665;SDS011;4370;48.916;8.380;2022-09-09T15:20:58;5.43;;;1.60;;
8665;SDS011;4370;48.916;8.380;2022-09-09T15:23:24;4.17;;;1.20;;
8665;SDS011;4370;48.916;8.380;2022-09-09T15:25:54;4.67;;;1.40;;
8665;SDS011;4370;48.916;8.380;2022-09-09T15:28:21;3.37;;;1.53;;
8665;SDS011;4370;48.916;8.380;2022-09-09T15:30:51;3.33;;;1.10;;
8665;SDS011;4370;48.916;8.380;2022-09-09T15:33:18;2.77;;;1.13;;
8665;SDS011;4370;48.916;8.380;2022-09-09T15:35:45;3.10;;;1.20;;
8665;SDS011;4370;48.916;8.380;2022-09-09T15:38:10;4.10;;;1.20;;
8665;SDS011;4370;48.916;8.380;2022-09-09T15:40:38;1.77;;;1.00;;
8665;SDS011;4370;48.916;8.380;2022-09-09T15:43:04;2.53;;;1.00;;
8665;SDS011;4370;48.916;8.380;2022-09-09T15:45:32;3.33;;;1.00;;
8665;SDS011;4370;48.916;8.380;2022-09-09T15:47:59;2.83;;;1.13;;
8665;SDS011;4370;48.916;8.380;2022-09-09T15:50:25;1.77;;;1.00;;
8665;SDS011;4370;48.916;8.380;2022-09-09T15:52:51;1.87;;;0.90;;
8665;SDS011;4370;48.916;8.380;2022-09-09T15:55:18;2.23;;;0.80;;
8665;SDS011;4370;48.916;8.380;2022-09-09T15:57:45;5.47;;;0.80;;
8665;SDS011;4370;48.916;8.380;2022-09-09T16:00:11;1.87;;;0.90;;
8665;SDS011;4370;48.916;8.380;2022-09-09T16:02:38;2.53;;;1.30;;
8665;SDS011;4370;48.916;8.380;2022-09-09T16:05:04;0.77;;;0.63;;
8665;SDS011;4370;48.916;8.380;2022-09-09T16:07:30;3.90;;;1.00;;
8665;SDS011;4370;48.916;8.380;2022-09-09T16:09:56;6.83;;;1.00;;
8665;SDS011;4370;48.916;8.380;2022-09-09T16:12:22;3.53;;;0.90;;
8665;SDS011;4370;48.916;8.380;2022-09-09T16:14:48;1.57;;;1.00;;
8665;SDS011;4370;48.916;8.380;2022-09-09T16:17:14;0.87;;;0.87;;
8665;SDS011;4370;48.916;8.380;2022-09-09T16:19:40;1.93;;;0.90;;
8665;SDS011;4370;48.916;8.380;2022-09-09T16:22:06;1.73;;;0.70;;
8665;SDS011;4370;48.916;8.380;2022-09-09T16:24:32;2.83;;;0.90;;
8665;SDS011;4370;48.916;8.380;2022-09-09T16:26:58;2.83;;;0.90;;
8665;SDS011;4370;48.916;8.380;2022-09-09T16:29:24;2.17;;;1.00;;
8665;SDS011;4370;48.916;8.380;2022-09-09T16:31:52;2.20;;;0.83;;
8665;SDS011;4370;48.916;8.380;2022-09-09T16:34:18;3.17;;;0.90;;
8665;SDS011;4370;48.916;8.380;2022-09-09T16:36:45;1.53;;;1.00;;
8665;SDS011;4370;48.916;8.380;2022-09-09T16:39:14;2.10;;;0.90;;
8665;SDS011;4370;48.916;8.380;2022-09-09T16:41:41;4.33;;;1.10;;
8665;SDS011;4370;48.916;8.380;2022-09-09T16:44:09;2.73;;;0.90;;
8665;SDS011;4370;48.916;8.380;2022-09-09T16:46:40;1.50;;;1.00;;
8665;SDS011;4370;48.916;8.380;2022-09-09T16:49:07;4.67;;;1.17;;
8665;SDS011;4370;48.916;8.380;2022-09-09T16:51:39;2.57;;;0.93;;
8665;SDS011;4370;48.916;8.380;2022-09-09T16:54:07;1.77;;;0.90;;
8665;SDS011;4370;48.916;8.380;2022-09-09T16:56:35;2.23;;;1.00;;
8665;SDS011;4370;48.916;8.380;2022-09-09T16:59:04;2.00;;;1.03;;
8665;SDS011;4370;48.916;8.380;2022-09-09T17:01:33;1.90;;;0.97;;
8665;SDS011;4370;48.916;8.380;2022-09-09T17:04:04;3.50;;;0.80;;
8665;SDS011;4370;48.916;8.380;2022-09-09T17:06:32;3.27;;;1.00;;
8665;SDS011;4370;48.916;8.380;2022-09-09T17:09:00;1.30;;;0.90;;
8665;SDS011;4370;48.916;8.380;2022-09-09T17:11:27;3.40;;;1.07;;
8665;SDS011;4370;48.916;8.380;2022-09-09T17:13:54;2.60;;;1.23;;
8665;SDS011;4370;48.916;8.380;2022-09-09T17:16:22;3.23;;;1.30;;
8665;SDS011;4370;48.916;8.380;2022-09-09T17:18:49;3.10;;;1.00;;
8665;SDS011;4370;48.916;8.380;2022-09-09T17:21:17;2.60;;;0.70;;
8665;SDS011;4370;48.916;8.380;2022-09-09T17:23:44;2.27;;;1.10;;
8665;SDS011;4370;48.916;8.380;2022-09-09T17:26:12;1.60;;;1.20;;
8665;SDS011;4370;48.916;8.380;2022-09-09T17:28:40;2.00;;;0.90;;
8665;SDS011;4370;48.916;8.380;2022-09-09T17:31:07;1.73;;;0.90;;
8665;SDS011;4370;48.916;8.380;2022-09-09T17:33:35;2.03;;;1.03;;
8665;SDS011;4370;48.916;8.380;2022-09-09T17:36:06;2.90;;;1.20;;
8665;SDS011;4370;48.916;8.380;2022-09-09T17:38:37;1.83;;;1.00;;
8665;SDS011;4370;48.916;8.380;2022-09-09T17:41:11;3.05;;;1.23;;
8665;SDS011;4370;48.916;8.380;2022-09-09T17:43:47;1.60;;;1.00;;
8665;SDS011;4370;48.916;8.380;2022-09-09T17:46:15;2.00;;;1.00;;